Time;durP1;ratioP1;P1;durP2;ratioP2;P2;SDS_P1;SDS_P2;PMS_P1;PMS_P2;Temp;Humidity;BMP_temperature;BMP_pressure;BME280_temperature;BME280_humidity;BME280_pressure;Samples;Min_cycle;Max_cycle;Signal;HPM_P1;HPM_P2
2023/06/30 00:00:12;;;;;;;15.50;12.63;;;21.00;99.90;;;;;;1892950;75;21098;-77
2023/06/30 00:03:03;;;;;;;17.55;12.73;;;21.00;99.90;;;;;;1892601;75;21128;-77
2023/06/30 00:05:55;;;;;;;14.25;11.80;;;21.10;99.90;;;;;;1884235;75;21118;-76
2023/06/30 00:08:53;;;;;;;15.95;12.45;;;21.10;99.90;;;;;;1881571;73;21223;-76
2023/06/30 00:11:44;;;;;;;17.25;12.25;;;21.20;99.90;;;;;;1908630;75;21117;-76
2023/06/30 00:14:36;;;;;;;17.75;13.15;;;21.20;99.90;;;;;;1894133;73;21187;-76
2023/06/30 00:17:27;;;;;;;15.20;12.30;;;21.30;99.90;;;;;;1914183;75;21495;-76
2023/06/30 00:20:21;;;;;;;15.75;12.40;;;21.30;99.90;;;;;;1892821;73;21681;-76
2023/06/30 00:23:13;;;;;;;16.17;12.85;;;21.30;99.90;;;;;;1883468;75;21074;-76
2023/06/30 00:26:04;;;;;;;17.92;12.78;;;21.10;99.90;;;;;;1885628;74;21608;-76
2023/06/30 00:28:56;;;;;;;16.00;11.90;;;21.10;99.90;;;;;;1914927;74;21094;-75
2023/06/30 00:31:48;;;;;;;16.85;12.78;;;21.10;99.90;;;;;;1899550;75;21102;-76
2023/06/30 00:37:20;;;;;;;15.80;12.28;;;21.10;99.90;;;;;;1950559;72;22773;-76
2023/06/30 00:40:14;;;;;;;19.00;13.15;;;21.10;99.90;;;;;;1898262;75;21230;-76
2023/06/30 00:43:05;;;;;;;16.70;12.68;;;21.10;99.90;;;;;;1896548;75;21177;-76
2023/06/30 00:45:57;;;;;;;16.32;12.60;;;21.20;99.90;;;;;;1911227;75;21082;-76
2023/06/30 00:48:49;;;;;;;15.72;12.68;;;21.10;99.90;;;;;;1894541;75;21109;-76
2023/06/30 00:51:41;;;;;;;16.17;11.97;;;21.10;99.90;;;;;;1882080;75;21106;-76
2023/06/30 00:54:32;;;;;;;14.90;11.50;;;21.20;99.90;;;;;;1853406;76;21112;-78
2023/06/30 00:57:23;;;;;;;14.18;11.33;;;21.10;99.90;;;;;;1890478;75;21090;-76
2023/06/30 01:00:17;;;;;;;13.55;10.68;;;21.10;99.90;;;;;;1896017;75;21164;-76
2023/06/30 01:05:52;;;;;;;13.13;10.48;;;21.20;99.90;;;;;;1934438;72;22774;-77
2023/06/30 01:11:28;;;;;;;15.28;10.23;;;21.20;99.90;;;;;;1941910;72;22125;-76
2023/06/30 01:14:20;;;;;;;14.10;10.15;;;21.20;99.90;;;;;;1901963;75;21142;-76
2023/06/30 01:17:12;;;;;;;11.40;8.90;;;21.20;99.90;;;;;;1897011;75;21181;-76
2023/06/30 01:20:10;;;;;;;12.70;9.93;;;21.20;99.90;;;;;;1866193;76;21109;-76
2023/06/30 01:23:05;;;;;;;11.33;9.35;;;21.20;99.90;;;;;;1909478;75;21114;-76
2023/06/30 01:25:58;;;;;;;11.38;8.88;;;21.10;99.90;;;;;;1901935;75;21090;-76
2023/06/30 01:31:30;;;;;;;12.82;8.40;;;21.00;99.90;;;;;;1945377;72;22098;-76
2023/06/30 01:34:22;;;;;;;11.60;8.18;;;21.10;99.90;;;;;;1911328;73;21148;-76
2023/06/30 01:37:13;;;;;;;13.43;8.63;;;21.00;99.90;;;;;;1904656;75;21072;-76
2023/06/30 01:42:48;;;;;;;10.80;8.13;;;21.00;99.90;;;;;;1937906;72;22196;-76
2023/06/30 01:45:40;;;;;;;14.87;8.83;;;20.90;99.90;;;;;;1887675;75;21146;-77
2023/06/30 01:51:11;;;;;;;12.07;8.80;;;20.90;99.90;;;;;;1938458;72;22709;-76
2023/06/30 01:54:03;;;;;;;10.72;7.92;;;20.90;99.90;;;;;;1884721;75;21408;-76
2023/06/30 01:56:54;;;;;;;10.75;8.78;;;21.00;99.90;;;;;;1891072;75;21080;-76
2023/06/30 01:59:45;;;;;;;12.58;9.35;;;21.00;99.90;;;;;;1895890;75;21098;-76
2023/06/30 02:02:37;;;;;;;12.47;9.60;;;21.00;99.90;;;;;;1882154;75;21340;-76
2023/06/30 02:05:29;;;;;;;14.38;10.00;;;20.90;99.90;;;;;;1903545;75;21138;-76
2023/06/30 02:08:20;;;;;;;14.53;10.45;;;20.80;99.90;;;;;;1894712;75;21107;-76
2023/06/30 02:13:56;;;;;;;14.53;11.68;;;20.40;99.90;;;;;;1937391;72;22685;-76
2023/06/30 02:16:47;;;;;;;14.20;11.30;;;20.30;99.90;;;;;;1904134;75;21066;-76
2023/06/30 02:19:40;;;;;;;16.97;11.90;;;20.20;99.90;;;;;;1907189;75;21240;-76
2023/06/30 02:25:10;;;;;;;15.83;11.78;;;20.00;99.90;;;;;;1933083;72;22221;-76
2023/06/30 02:28:00;;;;;;;15.03;11.43;;;19.90;99.90;;;;;;1892179;75;21070;-76
2023/06/30 02:33:31;;;;;;;14.78;12.23;;;20.00;99.90;;;;;;1953969;72;22178;-76
2023/06/30 02:39:00;;;;;;;15.13;11.40;;;20.00;99.90;;;;;;1941212;72;22298;-77
2023/06/30 02:41:51;;;;;;;14.25;11.45;;;20.00;99.90;;;;;;1883921;75;21099;-76
2023/06/30 02:47:22;;;;;;;14.18;11.10;;;20.10;99.90;;;;;;1941753;72;22615;-78
2023/06/30 02:50:13;;;;;;;15.23;11.33;;;20.20;99.90;;;;;;1899595;75;21697;-77
2023/06/30 02:53:05;;;;;;;13.60;11.00;;;20.20;99.90;;;;;;1891241;75;21079;-77
2023/06/30 02:55:56;;;;;;;15.03;11.95;;;20.00;99.90;;;;;;1897117;75;21172;-77
2023/06/30 03:01:30;;;;;;;13.22;10.95;;;20.00;99.90;;;;;;1936702;72;22162;-77
2023/06/30 03:07:00;;;;;;;12.95;10.03;;;19.90;99.90;;;;;;1912834;72;22185;-78
2023/06/30 03:09:52;;;;;;;14.10;10.18;;;20.00;99.90;;;;;;1909711;75;21253;-78
2023/06/30 03:12:45;;;;;;;13.93;10.08;;;20.10;99.90;;;;;;1911617;75;21641;-78
2023/06/30 03:15:37;;;;;;;12.68;9.35;;;20.10;99.90;;;;;;1891811;75;21046;-77
2023/06/30 03:21:08;;;;;;;13.95;10.30;;;20.10;99.90;;;;;;1948297;72;22256;-76
2023/06/30 03:26:42;;;;;;;14.15;11.48;;;20.00;99.90;;;;;;1938048;72;22205;-76
2023/06/30 03:29:36;;;;;;;15.08;10.75;;;19.90;99.90;;;;;;1900192;75;21152;-76
2023/06/30 03:32:28;;;;;;;15.10;11.20;;;20.00;99.90;;;;;;1913764;75;21055;-77
2023/06/30 03:35:20;;;;;;;15.18;11.20;;;20.00;99.90;;;;;;1902006;74;21077;-77
2023/06/30 03:38:11;;;;;;;14.25;11.10;;;20.00;99.90;;;;;;1904432;74;21550;-77
2023/06/30 03:41:03;;;;;;;15.85;12.03;;;19.90;99.90;;;;;;1894451;75;21055;-77
2023/06/30 03:43:54;;;;;;;13.78;11.25;;;19.80;99.90;;;;;;1896965;75;21099;-76
2023/06/30 03:46:45;;;;;;;16.77;12.33;;;19.90;99.90;;;;;;1884836;75;21156;-76
2023/06/30 03:49:37;;;;;;;16.85;12.75;;;19.90;99.90;;;;;;1898641;75;21071;-76
2023/06/30 03:52:28;;;;;;;15.08;11.83;;;19.70;99.90;;;;;;1914951;75;21152;-76
2023/06/30 03:55:20;;;;;;;19.27;12.98;;;19.70;99.90;;;;;;1915937;75;21135;-77
2023/06/30 03:58:11;;;;;;;16.77;12.55;;;19.70;99.90;;;;;;1883270;75;21106;-77
2023/06/30 04:01:03;;;;;;;17.35;12.55;;;19.60;99.90;;;;;;1898956;75;21046;-77
2023/06/30 04:06:34;;;;;;;19.10;13.68;;;19.60;99.90;;;;;;1952393;72;22256;-77
2023/06/30 04:09:26;;;;;;;20.90;13.98;;;19.60;99.90;;;;;;1896807;75;21590;-77
2023/06/30 04:12:17;;;;;;;19.27;13.83;;;19.60;99.90;;;;;;1884398;75;21166;-77
2023/06/30 04:15:11;;;;;;;19.65;13.38;;;19.60;99.90;;;;;;1906548;75;21109;-76
2023/06/30 04:18:02;;;;;;;20.12;13.70;;;19.60;99.90;;;;;;1911410;75;21043;-76
2023/06/30 04:20:54;;;;;;;17.62;12.80;;;19.50;99.90;;;;;;1848780;76;21101;-76
2023/06/30 04:26:30;;;;;;;19.73;14.05;;;19.50;99.90;;;;;;1926760;72;22268;-77
2023/06/30 04:29:21;;;;;;;18.17;13.83;;;19.50;99.90;;;;;;1887323;75;21585;-77
2023/06/30 04:32:13;;;;;;;17.90;13.68;;;19.60;99.90;;;;;;1888973;75;21058;-76
2023/06/30 04:37:44;;;;;;;18.37;12.65;;;19.50;99.90;;;;;;1932902;72;22188;-78
2023/06/30 04:43:15;;;;;;;18.07;13.78;;;19.60;99.90;;;;;;1951557;72;22556;-78
2023/06/30 04:46:07;;;;;;;16.90;13.50;;;19.70;99.90;;;;;;1908795;75;21144;-79
2023/06/30 04:49:00;;;;;;;16.62;12.80;;;19.80;99.90;;;;;;1892330;75;21256;-79
2023/06/30 04:51:52;;;;;;;19.32;13.35;;;19.80;99.90;;;;;;1897519;75;21081;-79
2023/06/30 04:54:44;;;;;;;17.67;11.65;;;19.80;99.90;;;;;;1913861;74;21063;-78
2023/06/30 04:57:35;;;;;;;16.82;11.70;;;19.80;99.90;;;;;;1906586;75;21106;-79
2023/06/30 05:00:28;;;;;;;15.53;11.63;;;19.80;99.90;;;;;;1903648;74;21538;-78
2023/06/30 05:03:19;;;;;;;13.55;10.28;;;19.80;99.90;;;;;;1889346;75;21106;-79
2023/06/30 05:06:11;;;;;;;14.68;9.75;;;19.80;99.90;;;;;;1861217;76;21153;-79
2023/06/30 05:11:42;;;;;;;15.25;10.53;;;19.90;99.90;;;;;;1945723;72;22733;-79
2023/06/30 05:17:14;;;;;;;13.35;9.48;;;20.00;99.90;;;;;;1931198;72;22225;-79
2023/06/30 05:20:09;;;;;;;15.15;9.83;;;20.10;99.90;;;;;;1893667;74;21227;-79
2023/06/30 05:23:02;;;;;;;12.18;9.83;;;20.10;99.90;;;;;;1902753;75;21156;-80
2023/06/30 05:25:53;;;;;;;11.12;8.50;;;20.10;99.90;;;;;;1908038;75;22154;-78
2023/06/30 05:31:24;;;;;;;12.73;9.60;;;20.20;99.90;;;;;;1938986;72;22173;-79
2023/06/30 05:34:16;;;;;;;15.50;9.55;;;20.20;99.90;;;;;;1898565;75;21566;-78
2023/06/30 05:37:08;;;;;;;13.43;9.58;;;20.30;99.90;;;;;;1901496;75;21058;-79
2023/06/30 05:42:38;;;;;;;13.35;9.55;;;20.20;99.90;;;;;;1945480;72;22133;-79
2023/06/30 05:45:30;;;;;;;12.55;10.15;;;20.30;99.90;;;;;;1875128;76;21188;-79
2023/06/30 05:51:00;;;;;;;12.88;9.45;;;20.40;99.90;;;;;;1935862;72;22157;-79
2023/06/30 05:56:30;;;;;;;13.38;9.55;;;20.30;99.90;;;;;;1943801;72;22146;-80
2023/06/30 05:59:22;;;;;;;14.68;10.30;;;20.20;99.90;;;;;;1890375;73;21153;-80
2023/06/30 06:02:13;;;;;;;13.43;10.80;;;20.20;99.90;;;;;;1885981;75;21123;-80
2023/06/30 06:05:06;;;;;;;13.90;11.12;;;20.20;99.90;;;;;;1900292;75;21107;-78
2023/06/30 06:07:58;;;;;;;14.65;11.03;;;20.10;99.90;;;;;;1900168;75;21051;-78
2023/06/30 06:10:50;;;;;;;16.97;11.53;;;20.00;99.90;;;;;;1884649;75;21127;-78
2023/06/30 06:13:41;;;;;;;15.48;10.78;;;20.10;99.90;;;;;;1901686;75;21184;-78
2023/06/30 06:16:33;;;;;;;12.85;10.28;;;20.00;99.90;;;;;;1897472;73;21102;-79
2023/06/30 06:19:24;;;;;;;14.18;11.08;;;20.00;99.90;;;;;;1907104;73;21098;-79
2023/06/30 06:25:01;;;;;;;16.17;11.93;;;19.90;99.90;;;;;;1949286;72;22186;-80
2023/06/30 06:30:32;;;;;;;15.03;10.35;;;19.80;99.90;;;;;;1936408;72;22223;-79
2023/06/30 06:33:23;;;;;;;15.80;10.98;;;19.80;99.90;;;;;;1881222;75;21182;-79
2023/06/30 06:38:54;;;;;;;9.80;7.12;;;19.60;99.90;;;;;;1935849;72;22666;-80
2023/06/30 06:41:46;;;;;;;6.05;4.08;;;19.50;99.90;;;;;;1892457;75;21119;-79
2023/06/30 06:44:39;;;;;;;6.25;3.30;;;19.40;99.90;;;;;;1904368;75;22152;-79
2023/06/30 06:48:05;;;;;;;4.05;2.85;;;19.20;99.90;;;;;;1906853;74;21292;-80
2023/06/30 06:50:59;;;;;;;4.15;2.33;;;19.00;99.90;;;;;;1908847;74;21100;-79
2023/06/30 06:56:29;;;;;;;2.10;1.00;;;18.80;99.90;;;;;;1938825;72;22253;-80
2023/06/30 06:59:21;;;;;;;1.77;0.85;;;18.70;99.90;;;;;;1885972;75;21149;-79
2023/06/30 07:02:12;;;;;;;1.55;1.00;;;18.50;99.90;;;;;;1876197;75;21143;-80
2023/06/30 07:11:45;;;;;;;2.20;1.02;;;18.10;99.90;;;;;;1916855;73;22272;-82
2023/06/30 07:25:45;;;;;;;2.45;1.12;;;17.60;99.90;;;;;;1731604;75;21172;-86
2023/06/30 07:31:24;;;;;;;3.00;1.60;;;17.70;99.90;;;;;;1954086;72;22745;-88
2023/06/30 07:47:56;;;;;;;4.53;2.75;;;17.80;99.90;;;;;;1930885;72;22177;-84
2023/06/30 07:50:47;;;;;;;4.67;2.98;;;18.10;99.90;;;;;;1896444;75;21157;-84
2023/06/30 07:53:40;;;;;;;5.42;3.22;;;18.20;99.90;;;;;;1897745;75;21093;-84
2023/06/30 07:56:32;;;;;;;4.70;3.40;;;18.30;99.90;;;;;;1905597;75;21158;-83
2023/06/30 07:59:23;;;;;;;4.83;3.12;;;18.30;99.90;;;;;;1890661;75;21102;-82
2023/06/30 08:02:18;;;;;;;5.58;3.65;;;18.50;99.90;;;;;;1903824;75;21106;-83
2023/06/30 08:07:50;;;;;;;5.95;3.65;;;18.60;99.90;;;;;;1928095;72;22330;-83
2023/06/30 08:10:42;;;;;;;4.72;3.27;;;18.70;99.90;;;;;;1916236;74;21159;-82
2023/06/30 08:16:15;;;;;;;5.67;3.65;;;18.80;99.90;;;;;;1945500;72;22249;-79
2023/06/30 08:19:07;;;;;;;5.22;3.67;;;18.90;99.90;;;;;;1926315;73;21176;-79
2023/06/30 08:22:01;;;;;;;4.53;3.12;;;18.90;99.90;;;;;;1919757;73;21132;-77
2023/06/30 08:24:55;;;;;;;5.47;3.65;;;18.90;99.90;;;;;;1926050;73;21676;-80
2023/06/30 08:27:46;;;;;;;5.35;3.75;;;19.00;99.90;;;;;;1920106;73;21626;-80
2023/06/30 08:30:37;;;;;;;7.58;4.20;;;19.00;99.90;;;;;;1922418;73;21090;-80
2023/06/30 08:33:30;;;;;;;6.60;4.60;;;19.10;99.90;;;;;;1922582;73;21608;-80
2023/06/30 08:41:44;;;;;;;4.72;3.37;;;19.00;99.90;;;;;;1930327;72;22126;-82
2023/06/30 08:44:43;;;;;;;6.08;4.05;;;19.10;99.90;;;;;;1893422;75;21104;-80
2023/06/30 08:47:34;;;;;;;5.67;3.92;;;19.00;99.90;;;;;;1880505;75;21079;-79
2023/06/30 08:50:26;;;;;;;5.50;3.75;;;18.80;99.90;;;;;;1885102;75;21185;-80
2023/06/30 08:55:58;;;;;;;4.08;3.27;;;18.90;99.90;;;;;;1937283;72;22184;-79
2023/06/30 08:58:49;;;;;;;4.87;3.47;;;18.90;99.90;;;;;;1893117;74;21116;-81
2023/06/30 09:01:42;;;;;;;4.55;3.75;;;19.00;99.90;;;;;;1904227;75;21167;-80
2023/06/30 09:04:36;;;;;;;4.42;3.00;;;18.90;99.90;;;;;;1915723;75;21212;-80
2023/06/30 09:10:10;;;;;;;5.45;3.95;;;18.80;99.90;;;;;;1937250;72;22196;-81
2023/06/30 09:13:03;;;;;;;6.05;3.70;;;18.80;99.90;;;;;;1892121;73;21161;-81
2023/06/30 09:18:52;;;;;;;6.58;3.58;;;18.90;99.90;;;;;;1927797;72;22247;-79
2023/06/30 09:21:44;;;;;;;6.10;3.98;;;19.00;99.90;;;;;;1902875;74;21099;-81
2023/06/30 09:27:18;;;;;;;5.20;4.28;;;19.20;99.90;;;;;;1940188;72;22202;-81
2023/06/30 09:30:13;;;;;;;5.87;4.40;;;19.30;99.90;;;;;;1900439;75;21131;-80
2023/06/30 09:33:06;;;;;;;6.90;3.65;;;19.30;99.90;;;;;;1916259;74;21043;-80
2023/06/30 09:35:59;;;;;;;5.80;3.58;;;19.30;99.90;;;;;;1907751;75;21114;-79
2023/06/30 09:41:30;;;;;;;5.67;4.08;;;19.30;99.90;;;;;;1930175;72;22569;-79
2023/06/30 09:47:03;;;;;;;6.62;4.55;;;19.20;99.90;;;;;;1950923;72;22251;-81
2023/06/30 09:52:34;;;;;;;6.10;4.50;;;19.20;99.90;;;;;;1941965;72;22138;-79
2023/06/30 09:55:25;;;;;;;6.47;4.50;;;19.20;99.90;;;;;;1929668;73;21114;-79
2023/06/30 10:01:02;;;;;;;5.28;4.35;;;19.40;99.90;;;;;;1913398;72;28041;-81
2023/06/30 10:06:47;;;;;;;6.10;4.37;;;19.60;99.90;;;;;;1932155;72;22192;-82
2023/06/30 10:09:39;;;;;;;5.78;4.25;;;19.60;99.90;;;;;;1898076;75;21610;-78
2023/06/30 10:12:33;;;;;;;6.10;4.30;;;19.60;99.90;;;;;;1889813;75;21093;-79
2023/06/30 10:18:08;;;;;;;6.40;4.37;;;19.70;99.90;;;;;;1933719;72;22275;-79
2023/06/30 10:21:00;;;;;;;6.67;4.50;;;19.70;99.90;;;;;;1883654;75;21266;-79
2023/06/30 10:23:53;;;;;;;6.65;4.45;;;19.70;99.90;;;;;;1876389;75;21132;-80
2023/06/30 10:26:54;;;;;;;7.40;4.45;;;19.70;99.90;;;;;;1883953;75;21135;-80
2023/06/30 10:29:48;;;;;;;5.97;4.15;;;19.70;99.90;;;;;;1888363;75;21118;-79
2023/06/30 10:32:40;;;;;;;5.08;3.70;;;19.60;99.90;;;;;;1872511;75;21256;-80
2023/06/30 10:35:33;;;;;;;6.12;4.03;;;19.60;99.90;;;;;;1892417;75;21206;-79
2023/06/30 10:38:26;;;;;;;4.47;3.05;;;19.60;99.90;;;;;;1892575;75;21150;-80
2023/06/30 10:41:19;;;;;;;5.10;3.65;;;19.70;99.90;;;;;;1899319;75;21048;-81
2023/06/30 10:46:55;;;;;;;6.15;3.90;;;19.50;99.90;;;;;;1938115;72;22279;-80
2023/06/30 10:49:53;;;;;;;5.12;3.70;;;19.60;99.90;;;;;;1905810;75;21047;-80
2023/06/30 10:52:51;;;;;;;4.70;3.47;;;19.60;99.90;;;;;;1907995;74;21204;-80
2023/06/30 10:55:44;;;;;;;8.08;3.77;;;19.70;99.90;;;;;;1901162;75;21188;-80
2023/06/30 11:01:15;;;;;;;5.03;3.42;;;19.70;99.90;;;;;;1917811;72;22251;-80
2023/06/30 11:07:06;;;;;;;4.90;3.40;;;19.70;99.90;;;;;;1921428;72;22298;-79
2023/06/30 11:12:54;;;;;;;5.25;3.87;;;19.80;99.90;;;;;;1939077;72;22190;-81
2023/06/30 11:18:27;;;;;;;6.33;4.25;;;19.70;99.90;;;;;;1955142;72;22200;-81
2023/06/30 11:23:59;;;;;;;6.90;4.30;;;19.30;99.90;;;;;;1939464;72;22261;-81
2023/06/30 11:26:51;;;;;;;7.70;4.62;;;19.30;99.90;;;;;;1916668;75;21079;-82
2023/06/30 11:29:42;;;;;;;6.72;5.20;;;19.20;99.90;;;;;;1916446;75;21079;-81
2023/06/30 11:32:36;;;;;;;9.08;6.67;;;19.10;99.90;;;;;;1915150;73;21082;-80
2023/06/30 11:38:18;;;;;;;7.87;5.45;;;19.20;99.90;;;;;;1932271;72;22192;-80
2023/06/30 11:41:10;;;;;;;7.65;5.35;;;19.20;99.90;;;;;;1937024;73;21128;-80
2023/06/30 11:44:01;;;;;;;8.08;5.08;;;19.10;99.90;;;;;;1918238;73;21089;-80
2023/06/30 11:49:37;;;;;;;7.95;5.92;;;19.10;99.90;;;;;;1945615;72;22136;-81
2023/06/30 11:52:34;;;;;;;10.43;6.97;;;19.20;99.90;;;;;;1891953;75;21146;-80
2023/06/30 11:58:09;;;;;;;9.18;7.03;;;19.40;99.90;;;;;;1946814;72;22185;-78
2023/06/30 12:01:03;;;;;;;9.58;6.97;;;19.40;99.90;;;;;;1937051;73;21081;-79
2023/06/30 12:06:36;;;;;;;8.48;6.25;;;19.40;99.90;;;;;;1943273;72;22216;-80
2023/06/30 12:09:33;;;;;;;11.25;7.05;;;19.20;99.90;;;;;;1887230;75;21126;-79
2023/06/30 12:12:28;;;;;;;12.28;7.60;;;19.10;99.90;;;;;;1903990;75;21088;-79
2023/06/30 12:15:21;;;;;;;9.10;6.55;;;18.90;99.90;;;;;;1906703;75;21043;-80
2023/06/30 12:18:13;;;;;;;9.30;6.80;;;19.00;99.90;;;;;;1892635;75;21109;-80
2023/06/30 12:21:07;;;;;;;9.10;5.40;;;19.00;99.90;;;;;;1898643;75;21577;-79
2023/06/30 12:23:58;;;;;;;11.18;7.42;;;19.10;99.90;;;;;;1903237;75;21420;-80
2023/06/30 12:26:51;;;;;;;10.55;6.47;;;19.10;99.90;;;;;;1904731;75;21314;-80
2023/06/30 12:32:24;;;;;;;9.53;7.12;;;19.10;99.90;;;;;;1933220;72;22253;-78
2023/06/30 12:37:54;;;;;;;8.25;6.65;;;19.10;99.90;;;;;;1930213;72;22210;-81
2023/06/30 12:43:27;;;;;;;9.50;6.92;;;19.20;99.90;;;;;;1948980;72;22220;-80
2023/06/30 12:46:17;;;;;;;10.60;7.15;;;19.20;99.90;;;;;;1919197;73;21541;-79
2023/06/30 12:49:08;;;;;;;10.55;7.00;;;19.20;99.90;;;;;;1918187;73;21067;-79
2023/06/30 13:15:11;;;;;;;3.27;1.50;;;16.90;99.90;;;;;;1933275;72;22158;-83
2023/06/30 13:18:04;;;;;;;3.77;2.00;;;16.60;99.90;;;;;;1883993;74;21110;-83
2023/06/30 13:21:00;;;;;;;4.70;2.35;;;16.40;99.90;;;;;;1888437;75;21212;-82
2023/06/30 13:26:31;;;;;;;4.92;3.30;;;16.50;99.90;;;;;;1914881;72;22221;-82
2023/06/30 13:29:22;;;;;;;2.47;2.27;;;16.60;99.90;;;;;;1902925;75;21070;-81
2023/06/30 13:32:16;;;;;;;3.98;2.70;;;16.70;99.90;;;;;;1897887;75;21451;-81
2023/06/30 13:35:39;;;;;;;4.08;2.62;;;16.80;99.90;;;;;;1911394;75;21082;-82
2023/06/30 13:41:34;;;;;;;3.15;2.50;;;17.20;99.90;;;;;;1932323;72;22181;-81
2023/06/30 13:44:27;;;;;;;4.05;2.40;;;17.30;99.90;;;;;;1897781;75;21070;-82
2023/06/30 13:47:18;;;;;;;2.90;2.40;;;17.30;99.90;;;;;;1904213;75;21106;-81
2023/06/30 13:50:15;;;;;;;4.37;2.30;;;17.40;99.90;;;;;;1898158;75;21542;-81
2023/06/30 13:53:07;;;;;;;4.03;2.47;;;17.50;99.90;;;;;;1873326;75;21203;-86
2023/06/30 13:55:59;;;;;;;3.98;2.05;;;17.50;99.90;;;;;;1891172;73;21036;-81
2023/06/30 14:01:46;;;;;;;2.80;2.20;;;17.70;99.90;;;;;;1924821;72;22708;-87
2023/06/30 14:04:34;;;;;;;2.87;2.30;;;17.70;99.90;;;;;;1886416;75;21086;-85
2023/06/30 14:07:30;;;;;;;3.60;2.12;;;17.80;99.90;;;;;;1873276;75;21208;-85
2023/06/30 14:13:01;;;;;;;2.83;2.17;;;18.00;99.90;;;;;;1940982;72;22707;-84
2023/06/30 14:15:52;;;;;;;3.60;1.87;;;18.10;99.90;;;;;;1913733;74;21195;-85
2023/06/30 14:21:25;;;;;;;2.40;1.90;;;18.30;99.90;;;;;;1935401;72;22178;-87
2023/06/30 14:24:18;;;;;;;2.12;1.55;;;18.40;99.90;;;;;;1894019;75;21212;-87
2023/06/30 14:27:10;;;;;;;2.25;1.70;;;18.50;99.90;;;;;;1885222;75;21133;-85
2023/06/30 14:30:02;;;;;;;2.40;1.77;;;18.60;99.90;;;;;;1889502;75;21095;-86
2023/06/30 14:36:02;;;;;;;2.20;1.62;;;18.70;99.90;;;;;;1927212;72;22284;-87
2023/06/30 14:42:14;;;;;;;2.35;1.75;;;18.70;99.90;;;;;;1939059;74;22179;-87
2023/06/30 14:45:12;;;;;;;4.47;2.33;;;18.90;99.90;;;;;;1902608;75;21055;-87
2023/06/30 14:48:13;;;;;;;4.72;1.77;;;19.00;99.90;;;;;;1897028;75;21105;-88
2023/06/30 14:51:07;;;;;;;2.35;1.77;;;19.20;99.90;;;;;;1924010;73;21054;-87
2023/06/30 14:56:43;;;;;;;4.28;2.58;;;19.30;99.90;;;;;;1932676;72;22568;-88
2023/06/30 15:02:25;;;;;;;5.37;2.83;;;19.50;99.90;;;;;;1954578;72;22147;-87
2023/06/30 15:05:16;;;;;;;3.72;2.42;;;19.60;99.90;;;;;;1915342;73;21122;-88
2023/06/30 15:08:09;;;;;;;4.55;3.40;;;19.70;99.90;;;;;;1919929;73;21200;-88
2023/06/30 15:11:00;;;;;;;5.45;3.80;;;19.70;99.90;;;;;;1918930;73;21135;-89
2023/06/30 15:13:52;;;;;;;5.17;3.67;;;19.90;99.90;;;;;;1918865;75;21164;-89
2023/06/30 15:16:44;;;;;;;4.78;3.77;;;20.10;99.90;;;;;;1916939;75;21046;-89
2023/06/30 15:19:36;;;;;;;6.65;4.50;;;20.30;99.90;;;;;;1925075;73;21218;-88
2023/06/30 15:22:29;;;;;;;6.42;3.87;;;20.50;99.90;;;;;;1919281;75;21163;-89
2023/06/30 15:28:09;;;;;;;4.95;4.35;;;20.50;99.90;;;;;;1931664;72;22205;-88
2023/06/30 15:33:44;;;;;;;6.28;4.33;;;20.40;99.90;;;;;;1932926;72;22177;-90
2023/06/30 15:36:36;;;;;;;5.12;4.40;;;20.20;99.90;;;;;;1925993;74;21071;-89
2023/06/30 15:39:30;;;;;;;6.35;4.50;;;20.10;99.90;;;;;;1917005;74;21217;-90
2023/06/30 15:42:22;;;;;;;5.42;3.90;;;20.00;99.90;;;;;;1927772;74;21667;-84
2023/06/30 15:45:13;;;;;;;6.17;4.20;;;20.00;99.90;;;;;;1917374;74;21095;-85
2023/06/30 15:48:05;;;;;;;3.83;2.72;;;19.90;99.90;;;;;;1920862;74;21578;-84
2023/06/30 15:50:57;;;;;;;3.90;2.92;;;19.90;99.90;;;;;;1921721;74;21107;-84
2023/06/30 15:53:49;;;;;;;4.28;3.05;;;19.90;99.90;;;;;;1916424;74;21190;-84
2023/06/30 15:56:41;;;;;;;3.12;2.62;;;20.00;99.90;;;;;;1917966;74;21505;-84
2023/06/30 15:59:32;;;;;;;3.42;2.67;;;19.90;99.90;;;;;;1916478;74;21159;-85
2023/06/30 16:02:40;;;;;;;1.82;1.40;;;19.90;99.90;;;;;;1904264;75;21130;-84
2023/06/30 16:05:31;;;;;;;1.55;1.30;;;20.00;99.90;;;;;;1909703;74;21153;-84
2023/06/30 16:11:03;;;;;;;1.95;1.47;;;20.00;99.90;;;;;;1935312;72;22252;-84
2023/06/30 16:16:43;;;;;;;3.50;1.90;;;20.10;99.90;;;;;;1919434;72;38871;-85
2023/06/30 16:22:14;;;;;;;1.62;1.20;;;20.30;99.90;;;;;;1938964;72;22285;-85
2023/06/30 16:25:07;;;;;;;8.13;6.62;;;20.40;99.90;;;;;;1890656;75;21055;-83
2023/06/30 16:27:59;;;;;;;10.82;8.78;;;20.50;99.90;;;;;;1882438;75;21087;-84
2023/06/30 16:30:51;;;;;;;10.48;9.50;;;20.60;99.90;;;;;;1893035;75;21134;-84
2023/06/30 16:36:21;;;;;;;2.92;2.70;;;20.70;99.90;;;;;;1953834;72;22224;-83
2023/06/30 16:39:13;;;;;;;3.45;2.10;;;20.80;99.90;;;;;;1919754;73;21082;-84
2023/06/30 16:42:05;;;;;;;2.50;2.20;;;20.90;99.90;;;;;;1934682;73;21208;-84
2023/06/30 16:44:56;;;;;;;2.42;1.60;;;21.00;99.90;;;;;;1938112;73;21170;-83
2023/06/30 16:47:48;;;;;;;4.85;2.30;;;21.10;99.90;;;;;;1929279;73;21085;-83
2023/06/30 16:50:40;;;;;;;2.52;1.80;;;21.30;99.90;;;;;;1934591;73;21095;-83
2023/06/30 16:53:32;;;;;;;3.05;2.00;;;21.30;99.90;;;;;;1916465;74;21114;-83
2023/06/30 16:59:14;;;;;;;3.22;2.52;;;21.40;99.90;;;;;;1934057;72;22588;-84
2023/06/30 17:02:06;;;;;;;6.72;5.45;;;21.40;99.90;;;;;;1897660;75;21153;-84
2023/06/30 17:04:58;;;;;;;5.35;2.60;;;21.40;99.90;;;;;;1876372;75;21174;-84
2023/06/30 17:07:51;;;;;;;4.95;3.25;;;21.30;99.90;;;;;;1880983;75;21216;-83
2023/06/30 17:10:43;;;;;;;4.33;2.35;;;21.30;99.90;;;;;;1879223;75;21172;-83
2023/06/30 17:13:39;;;;;;;4.60;2.70;;;21.20;99.90;;;;;;1886429;75;21121;-83
2023/06/30 17:16:54;;;;;;;5.10;2.70;;;21.10;99.90;;;;;;1874997;75;21082;-83
2023/06/30 17:22:24;;;;;;;5.03;2.90;;;21.00;99.90;;;;;;1941782;72;22220;-84
2023/06/30 17:25:20;;;;;;;2.40;2.20;;;21.00;99.90;;;;;;1891430;75;21129;-84
2023/06/30 17:28:11;;;;;;;4.35;2.50;;;21.00;99.90;;;;;;1889761;75;21097;-84
2023/06/30 17:31:06;;;;;;;3.77;2.37;;;20.90;99.90;;;;;;1894343;75;21088;-84
2023/06/30 17:36:37;;;;;;;3.42;2.27;;;20.90;99.90;;;;;;1943723;72;22242;-83
2023/06/30 17:42:11;;;;;;;2.85;2.20;;;20.80;99.90;;;;;;1928518;72;22214;-85
2023/06/30 17:45:02;;;;;;;3.85;2.67;;;20.80;99.90;;;;;;1905623;75;21138;-83
2023/06/30 17:47:56;;;;;;;6.20;2.47;;;20.70;99.90;;;;;;1882739;75;21097;-84
2023/06/30 17:50:47;;;;;;;3.92;2.42;;;20.70;99.90;;;;;;1887514;75;21507;-83
2023/06/30 17:53:38;;;;;;;2.72;2.17;;;20.60;99.90;;;;;;1911529;75;21128;-83
2023/06/30 17:59:10;;;;;;;2.87;2.15;;;20.50;99.90;;;;;;1941517;72;22234;-83
2023/06/30 18:02:01;;;;;;;3.30;2.00;;;20.40;99.90;;;;;;1903495;73;21226;-84
2023/06/30 18:04:56;;;;;;;3.05;1.80;;;20.40;99.90;;;;;;1887263;75;21109;-84
2023/06/30 18:07:48;;;;;;;3.90;2.70;;;20.40;99.90;;;;;;1891553;75;21142;-83
2023/06/30 18:10:39;;;;;;;3.80;2.50;;;20.30;99.90;;;;;;1907785;75;21087;-84
2023/06/30 18:13:36;;;;;;;2.30;2.05;;;20.30;99.90;;;;;;1890439;75;21113;-83
2023/06/30 18:16:25;;;;;;;2.67;2.15;;;20.10;99.90;;;;;;1899581;75;21284;-84
2023/06/30 18:21:57;;;;;;;3.02;2.00;;;20.00;99.90;;;;;;1928917;72;22598;-83
2023/06/30 18:27:26;;;;;;;2.72;2.00;;;19.90;99.90;;;;;;1945437;72;22192;-82
2023/06/30 18:33:01;;;;;;;4.10;2.30;;;19.90;99.90;;;;;;1962309;72;22610;-83
2023/06/30 18:35:52;;;;;;;6.03;2.27;;;19.90;99.90;;;;;;1882063;75;21250;-83
2023/06/30 18:38:43;;;;;;;4.28;2.47;;;19.80;99.90;;;;;;1897129;73;21224;-83
2023/06/30 18:41:34;;;;;;;2.42;2.22;;;19.80;99.90;;;;;;1888066;75;21127;-83
2023/06/30 18:47:09;;;;;;;2.90;1.98;;;19.80;99.90;;;;;;1947059;72;22249;-85
2023/06/30 18:52:42;;;;;;;4.35;2.37;;;19.80;99.90;;;;;;1940382;72;22248;-83
2023/06/30 18:55:33;;;;;;;5.00;2.40;;;19.70;99.90;;;;;;1895303;75;21106;-83
2023/06/30 18:58:24;;;;;;;3.65;2.00;;;19.60;99.90;;;;;;1901064;75;21164;-84
2023/06/30 19:01:17;;;;;;;3.98;2.25;;;19.60;99.90;;;;;;1891474;75;21090;-84
2023/06/30 19:09:33;;;;;;;3.72;3.12;;;19.50;99.90;;;;;;1937545;72;22388;-83
2023/06/30 19:12:25;;;;;;;6.12;3.80;;;19.50;99.90;;;;;;1894303;75;21167;-83
2023/06/30 19:15:16;;;;;;;2.85;2.30;;;19.50;99.90;;;;;;1912570;73;21078;-83
2023/06/30 19:18:09;;;;;;;5.22;2.70;;;19.40;99.90;;;;;;1909829;75;21544;-83
2023/06/30 19:21:00;;;;;;;3.40;2.35;;;19.30;99.90;;;;;;1892395;73;21565;-83
2023/06/30 19:26:30;;;;;;;3.55;2.35;;;19.30;99.90;;;;;;1939890;72;22125;-84
2023/06/30 19:29:21;;;;;;;2.70;2.10;;;19.10;99.90;;;;;;1906839;74;21094;-83
2023/06/30 19:32:12;;;;;;;5.00;2.50;;;18.90;99.90;;;;;;1900637;75;21110;-83
2023/06/30 19:35:05;;;;;;;3.62;2.22;;;19.00;99.90;;;;;;1902160;75;21156;-84